sensor_id;sensor_type;location;lat;lon;timestamp;temperature;humidity
65598;SHT31;52267;51.984;20.956;2023-07-22T00:00:04;17.30;76.23
65598;SHT31;52267;51.984;20.956;2023-07-22T00:02:32;17.30;76.38
65598;SHT31;52267;51.984;20.956;2023-07-22T00:05:00;17.28;76.63
65598;SHT31;52267;51.984;20.956;2023-07-22T00:07:27;17.29;76.72
65598;SHT31;52267;51.984;20.956;2023-07-22T00:09:54;17.29;76.82
65598;SHT31;52267;51.984;20.956;2023-07-22T00:12:21;17.27;77.01
65598;SHT31;52267;51.984;20.956;2023-07-22T00:14:52;17.26;77.00
65598;SHT31;52267;51.984;20.956;2023-07-22T00:17:19;17.25;77.28
65598;SHT31;52267;51.984;20.956;2023-07-22T00:19:51;17.25;77.42
65598;SHT31;52267;51.984;20.956;2023-07-22T00:22:18;17.24;77.66
65598;SHT31;52267;51.984;20.956;2023-07-22T00:24:46;17.23;77.39
65598;SHT31;52267;51.984;20.956;2023-07-22T00:27:13;17.20;77.55
65598;SHT31;52267;51.984;20.956;2023-07-22T00:29:41;17.16;77.81
65598;SHT31;52267;51.984;20.956;2023-07-22T00:32:08;17.14;77.86
65598;SHT31;52267;51.984;20.956;2023-07-22T00:34:35;17.14;77.98
65598;SHT31;52267;51.984;20.956;2023-07-22T00:37:03;17.15;77.99
65598;SHT31;52267;51.984;20.956;2023-07-22T00:39:30;17.15;78.16
65598;SHT31;52267;51.984;20.956;2023-07-22T00:41:57;17.14;78.30
65598;SHT31;52267;51.984;20.956;2023-07-22T00:44:24;17.12;78.39
65598;SHT31;52267;51.984;20.956;2023-07-22T00:46:53;17.09;78.56
65598;SHT31;52267;51.984;20.956;2023-07-22T00:49:23;17.08;78.70
65598;SHT31;52267;51.984;20.956;2023-07-22T00:51:52;17.08;78.69
65598;SHT31;52267;51.984;20.956;2023-07-22T00:54:19;17.08;78.82
65598;SHT31;52267;51.984;20.956;2023-07-22T00:56:46;17.07;78.90
65598;SHT31;52267;51.984;20.956;2023-07-22T00:59:17;17.06;78.96
65598;SHT31;52267;51.984;20.956;2023-07-22T01:01:44;17.06;79.03
65598;SHT31;52267;51.984;20.956;2023-07-22T01:04:13;17.05;79.12
65598;SHT31;52267;51.984;20.956;2023-07-22T01:06:42;17.05;79.21
65598;SHT31;52267;51.984;20.956;2023-07-22T01:09:11;17.05;79.11
65598;SHT31;52267;51.984;20.956;2023-07-22T01:11:38;17.09;79.08
65598;SHT31;52267;51.984;20.956;2023-07-22T01:14:05;17.12;79.10
65598;SHT31;52267;51.984;20.956;2023-07-22T01:16:34;17.14;79.24
65598;SHT31;52267;51.984;20.956;2023-07-22T01:19:01;17.13;79.27
65598;SHT31;52267;51.984;20.956;2023-07-22T01:21:31;17.10;79.30
65598;SHT31;52267;51.984;20.956;2023-07-22T01:23:59;17.09;79.37
65598;SHT31;52267;51.984;20.956;2023-07-22T01:26:26;17.08;79.48
65598;SHT31;52267;51.984;20.956;2023-07-22T01:29:01;17.02;79.84
65598;SHT31;52267;51.984;20.956;2023-07-22T01:31:35;16.98;80.03
65598;SHT31;52267;51.984;20.956;2023-07-22T01:34:02;16.98;80.08
65598;SHT31;52267;51.984;20.956;2023-07-22T01:36:30;16.99;79.85
65598;SHT31;52267;51.984;20.956;2023-07-22T01:38:57;17.02;79.92
65598;SHT31;52267;51.984;20.956;2023-07-22T01:41:24;17.04;79.80
65598;SHT31;52267;51.984;20.956;2023-07-22T01:43:51;17.03;80.27
65598;SHT31;52267;51.984;20.956;2023-07-22T01:46:18;17.02;80.15
65598;SHT31;52267;51.984;20.956;2023-07-22T01:48:46;17.01;80.16
65598;SHT31;52267;51.984;20.956;2023-07-22T01:51:13;17.01;80.15
65598;SHT31;52267;51.984;20.956;2023-07-22T01:53:40;17.01;80.16
65598;SHT31;52267;51.984;20.956;2023-07-22T01:56:07;16.98;80.24
65598;SHT31;52267;51.984;20.956;2023-07-22T01:58:35;16.97;80.25
65598;SHT31;52267;51.984;20.956;2023-07-22T02:01:02;16.95;80.24
65598;SHT31;52267;51.984;20.956;2023-07-22T02:03:29;16.92;80.27
65598;SHT31;52267;51.984;20.956;2023-07-22T02:06:02;16.91;80.31
65598;SHT31;52267;51.984;20.956;2023-07-22T02:08:30;16.91;80.34
65598;SHT31;52267;51.984;20.956;2023-07-22T02:11:04;16.87;80.32
65598;SHT31;52267;51.984;20.956;2023-07-22T02:13:33;16.83;80.54
65598;SHT31;52267;51.984;20.956;2023-07-22T02:16:01;16.78;80.63
65598;SHT31;52267;51.984;20.956;2023-07-22T02:18:29;16.77;80.54
65598;SHT31;52267;51.984;20.956;2023-07-22T02:20:57;16.74;80.54
65598;SHT31;52267;51.984;20.956;2023-07-22T02:23:24;16.74;80.56
65598;SHT31;52267;51.984;20.956;2023-07-22T02:25:52;16.72;80.54
65598;SHT31;52267;51.984;20.956;2023-07-22T02:28:20;16.73;80.48
65598;SHT31;52267;51.984;20.956;2023-07-22T02:30:49;16.76;80.46
65598;SHT31;52267;51.984;20.956;2023-07-22T02:33:19;16.75;80.55
65598;SHT31;52267;51.984;20.956;2023-07-22T02:35:48;16.77;80.48
65598;SHT31;52267;51.984;20.956;2023-07-22T02:38:15;16.77;80.53
65598;SHT31;52267;51.984;20.956;2023-07-22T02:40:42;16.78;80.58
65598;SHT31;52267;51.984;20.956;2023-07-22T02:43:10;16.77;80.73
65598;SHT31;52267;51.984;20.956;2023-07-22T02:45:37;16.74;80.73
65598;SHT31;52267;51.984;20.956;2023-07-22T02:48:04;16.75;80.75
65598;SHT31;52267;51.984;20.956;2023-07-22T02:50:31;16.75;80.78
65598;SHT31;52267;51.984;20.956;2023-07-22T02:52:59;16.73;80.98
65598;SHT31;52267;51.984;20.956;2023-07-22T02:55:26;16.66;81.24
65598;SHT31;52267;51.984;20.956;2023-07-22T02:57:53;16.63;81.31
65598;SHT31;52267;51.984;20.956;2023-07-22T03:00:23;16.61;81.57
65598;SHT31;52267;51.984;20.956;2023-07-22T03:02:50;16.60;81.51
65598;SHT31;52267;51.984;20.956;2023-07-22T03:05:19;16.63;81.38
65598;SHT31;52267;51.984;20.956;2023-07-22T03:07:47;16.60;81.43
65598;SHT31;52267;51.984;20.956;2023-07-22T03:10:15;16.58;81.62
65598;SHT31;52267;51.984;20.956;2023-07-22T03:12:42;16.53;81.67
65598;SHT31;52267;51.984;20.956;2023-07-22T03:15:09;16.55;81.56
65598;SHT31;52267;51.984;20.956;2023-07-22T03:17:39;16.56;81.45
65598;SHT31;52267;51.984;20.956;2023-07-22T03:20:08;16.53;81.48
65598;SHT31;52267;51.984;20.956;2023-07-22T03:22:46;16.53;81.53
65598;SHT31;52267;51.984;20.956;2023-07-22T03:25:13;16.51;81.43
65598;SHT31;52267;51.984;20.956;2023-07-22T03:27:43;16.51;81.36
65598;SHT31;52267;51.984;20.956;2023-07-22T03:34:10;16.48;81.47
65598;SHT31;52267;51.984;20.956;2023-07-22T03:36:37;16.49;81.29
65598;SHT31;52267;51.984;20.956;2023-07-22T03:39:04;16.50;81.29
65598;SHT31;52267;51.984;20.956;2023-07-22T03:41:32;16.53;81.30
65598;SHT31;52267;51.984;20.956;2023-07-22T03:43:59;16.57;81.30
65598;SHT31;52267;51.984;20.956;2023-07-22T03:46:26;16.57;81.70
65598;SHT31;52267;51.984;20.956;2023-07-22T03:48:53;16.59;81.64
65598;SHT31;52267;51.984;20.956;2023-07-22T03:51:23;16.66;81.51
65598;SHT31;52267;51.984;20.956;2023-07-22T03:53:50;16.72;81.98
65598;SHT31;52267;51.984;20.956;2023-07-22T03:56:17;16.74;81.97
65598;SHT31;52267;51.984;20.956;2023-07-22T03:58:44;16.81;81.94
65598;SHT31;52267;51.984;20.956;2023-07-22T04:01:12;16.83;82.31
65598;SHT31;52267;51.984;20.956;2023-07-22T04:03:39;16.87;82.35
65598;SHT31;52267;51.984;20.956;2023-07-22T04:06:14;16.93;82.43
65598;SHT31;52267;51.984;20.956;2023-07-22T04:08:41;16.98;82.53
65598;SHT31;52267;51.984;20.956;2023-07-22T04:11:08;17.03;82.43
65598;SHT31;52267;51.984;20.956;2023-07-22T04:13:35;17.09;82.53
65598;SHT31;52267;51.984;20.956;2023-07-22T04:16:02;17.17;82.47
65598;SHT31;52267;51.984;20.956;2023-07-22T04:18:29;17.22;82.15
65598;SHT31;52267;51.984;20.956;2023-07-22T04:21:00;17.28;81.59
65598;SHT31;52267;51.984;20.956;2023-07-22T04:23:28;17.33;81.47
65598;SHT31;52267;51.984;20.956;2023-07-22T04:25:55;17.38;81.49
65598;SHT31;52267;51.984;20.956;2023-07-22T04:28:22;17.42;81.06
65598;SHT31;52267;51.984;20.956;2023-07-22T04:30:58;17.46;80.94
65598;SHT31;52267;51.984;20.956;2023-07-22T04:33:26;17.50;81.25
65598;SHT31;52267;51.984;20.956;2023-07-22T04:35:55;17.54;81.30
65598;SHT31;52267;51.984;20.956;2023-07-22T04:38:25;17.59;81.19
65598;SHT31;52267;51.984;20.956;2023-07-22T04:40:52;17.63;80.95
65598;SHT31;52267;51.984;20.956;2023-07-22T04:43:19;17.66;80.72
65598;SHT31;52267;51.984;20.956;2023-07-22T04:45:46;17.72;80.57
65598;SHT31;52267;51.984;20.956;2023-07-22T04:48:18;17.77;80.43
65598;SHT31;52267;51.984;20.956;2023-07-22T04:50:47;17.82;80.37
65598;SHT31;52267;51.984;20.956;2023-07-22T04:53:14;17.89;80.46
65598;SHT31;52267;51.984;20.956;2023-07-22T04:55:42;17.93;80.36
65598;SHT31;52267;51.984;20.956;2023-07-22T04:58:09;17.99;80.34
65598;SHT31;52267;51.984;20.956;2023-07-22T05:00:39;18.05;80.01
65598;SHT31;52267;51.984;20.956;2023-07-22T05:03:08;18.09;79.84
65598;SHT31;52267;51.984;20.956;2023-07-22T05:05:35;18.15;79.76
65598;SHT31;52267;51.984;20.956;2023-07-22T05:08:02;18.20;79.70
65598;SHT31;52267;51.984;20.956;2023-07-22T05:10:30;18.26;79.54
65598;SHT31;52267;51.984;20.956;2023-07-22T05:12:57;18.32;79.43
65598;SHT31;52267;51.984;20.956;2023-07-22T05:15:24;18.34;79.17
65598;SHT31;52267;51.984;20.956;2023-07-22T05:17:51;18.39;79.08
65598;SHT31;52267;51.984;20.956;2023-07-22T05:20:18;18.41;78.91
65598;SHT31;52267;51.984;20.956;2023-07-22T05:22:45;18.44;78.76
65598;SHT31;52267;51.984;20.956;2023-07-22T05:25:13;18.49;78.63
65598;SHT31;52267;51.984;20.956;2023-07-22T05:27:40;18.53;78.45
65598;SHT31;52267;51.984;20.956;2023-07-22T05:30:08;18.55;78.37
65598;SHT31;52267;51.984;20.956;2023-07-22T05:32:35;18.52;78.15
65598;SHT31;52267;51.984;20.956;2023-07-22T05:35:02;18.51;78.13
65598;SHT31;52267;51.984;20.956;2023-07-22T05:37:31;18.54;78.03
65598;SHT31;52267;51.984;20.956;2023-07-22T05:39:59;18.62;77.92
65598;SHT31;52267;51.984;20.956;2023-07-22T05:42:28;18.68;77.94
65598;SHT31;52267;51.984;20.956;2023-07-22T05:44:56;18.80;77.69
65598;SHT31;52267;51.984;20.956;2023-07-22T05:47:24;18.96;77.41
65598;SHT31;52267;51.984;20.956;2023-07-22T05:49:51;19.13;77.13
65598;SHT31;52267;51.984;20.956;2023-07-22T05:52:19;19.28;76.71
65598;SHT31;52267;51.984;20.956;2023-07-22T05:54:46;19.41;76.56
65598;SHT31;52267;51.984;20.956;2023-07-22T05:57:13;19.59;76.39
65598;SHT31;52267;51.984;20.956;2023-07-22T05:59:40;19.77;75.98
65598;SHT31;52267;51.984;20.956;2023-07-22T06:02:08;19.88;75.52
65598;SHT31;52267;51.984;20.956;2023-07-22T06:04:37;19.91;74.96
65598;SHT31;52267;51.984;20.956;2023-07-22T06:07:05;19.94;74.86
65598;SHT31;52267;51.984;20.956;2023-07-22T06:09:32;19.97;74.74
65598;SHT31;52267;51.984;20.956;2023-07-22T06:11:59;20.01;74.38
65598;SHT31;52267;51.984;20.956;2023-07-22T06:14:26;20.00;74.17
65598;SHT31;52267;51.984;20.956;2023-07-22T06:16:54;20.02;73.90
65598;SHT31;52267;51.984;20.956;2023-07-22T06:19:21;20.02;73.39
65598;SHT31;52267;51.984;20.956;2023-07-22T06:21:50;20.05;73.10
65598;SHT31;52267;51.984;20.956;2023-07-22T06:24:17;20.11;73.01
65598;SHT31;52267;51.984;20.956;2023-07-22T06:26:44;20.10;72.56
65598;SHT31;52267;51.984;20.956;2023-07-22T06:29:11;20.06;72.28
65598;SHT31;52267;51.984;20.956;2023-07-22T06:31:38;20.05;71.88
65598;SHT31;52267;51.984;20.956;2023-07-22T06:34:05;20.04;71.44
65598;SHT31;52267;51.984;20.956;2023-07-22T06:36:32;20.04;70.92
65598;SHT31;52267;51.984;20.956;2023-07-22T06:38:59;20.02;70.40
65598;SHT31;52267;51.984;20.956;2023-07-22T06:41:26;20.00;70.08
65598;SHT31;52267;51.984;20.956;2023-07-22T06:43:53;20.02;70.02
65598;SHT31;52267;51.984;20.956;2023-07-22T06:46:20;20.04;70.01
65598;SHT31;52267;51.984;20.956;2023-07-22T06:48:47;20.03;69.60
65598;SHT31;52267;51.984;20.956;2023-07-22T06:51:15;20.04;69.49
65598;SHT31;52267;51.984;20.956;2023-07-22T06:53:42;20.08;69.40
65598;SHT31;52267;51.984;20.956;2023-07-22T06:56:09;20.14;69.14
65598;SHT31;52267;51.984;20.956;2023-07-22T06:58:36;20.21;69.05
65598;SHT31;52267;51.984;20.956;2023-07-22T07:01:03;20.24;68.66
65598;SHT31;52267;51.984;20.956;2023-07-22T07:03:30;20.24;68.62
65598;SHT31;52267;51.984;20.956;2023-07-22T07:05:57;20.25;68.22
65598;SHT31;52267;51.984;20.956;2023-07-22T07:08:24;20.21;67.51
65598;SHT31;52267;51.984;20.956;2023-07-22T07:10:51;20.24;67.66
65598;SHT31;52267;51.984;20.956;2023-07-22T07:13:19;20.33;67.80
65598;SHT31;52267;51.984;20.956;2023-07-22T07:15:46;20.39;67.33
65598;SHT31;52267;51.984;20.956;2023-07-22T07:18:15;20.47;67.38
65598;SHT31;52267;51.984;20.956;2023-07-22T07:20:42;20.57;66.87
65598;SHT31;52267;51.984;20.956;2023-07-22T07:23:10;20.59;66.38
65598;SHT31;52267;51.984;20.956;2023-07-22T07:25:38;20.69;66.42
65598;SHT31;52267;51.984;20.956;2023-07-22T07:28:05;20.77;65.29
65598;SHT31;52267;51.984;20.956;2023-07-22T07:30:32;20.79;65.23
65598;SHT31;52267;51.984;20.956;2023-07-22T07:32:59;20.86;65.10
65598;SHT31;52267;51.984;20.956;2023-07-22T07:35:26;20.93;64.93
65598;SHT31;52267;51.984;20.956;2023-07-22T07:37:53;20.94;64.35
65598;SHT31;52267;51.984;20.956;2023-07-22T07:40:20;20.95;64.49
65598;SHT31;52267;51.984;20.956;2023-07-22T07:42:48;20.91;64.22
65598;SHT31;52267;51.984;20.956;2023-07-22T07:45:15;20.89;64.39
65598;SHT31;52267;51.984;20.956;2023-07-22T07:47:42;20.94;64.57
65598;SHT31;52267;51.984;20.956;2023-07-22T07:50:09;21.09;64.15
65598;SHT31;52267;51.984;20.956;2023-07-22T07:52:36;21.27;63.59
65598;SHT31;52267;51.984;20.956;2023-07-22T07:55:05;21.53;62.77
65598;SHT31;52267;51.984;20.956;2023-07-22T07:57:32;21.70;62.38
65598;SHT31;52267;51.984;20.956;2023-07-22T08:00:00;21.99;62.08
65598;SHT31;52267;51.984;20.956;2023-07-22T08:02:27;22.31;61.57
65598;SHT31;52267;51.984;20.956;2023-07-22T08:04:54;22.62;60.80
65598;SHT31;52267;51.984;20.956;2023-07-22T08:07:21;22.62;58.23
65598;SHT31;52267;51.984;20.956;2023-07-22T08:09:48;22.72;57.74
65598;SHT31;52267;51.984;20.956;2023-07-22T08:12:16;22.92;58.23
65598;SHT31;52267;51.984;20.956;2023-07-22T08:14:43;23.20;57.71
65598;SHT31;52267;51.984;20.956;2023-07-22T08:17:10;23.37;56.89
65598;SHT31;52267;51.984;20.956;2023-07-22T08:19:37;23.49;56.57
65598;SHT31;52267;51.984;20.956;2023-07-22T08:22:04;23.64;56.44
65598;SHT31;52267;51.984;20.956;2023-07-22T08:24:32;23.86;55.73
65598;SHT31;52267;51.984;20.956;2023-07-22T08:26:59;23.84;54.02
65598;SHT31;52267;51.984;20.956;2023-07-22T08:29:26;23.83;53.83
65598;SHT31;52267;51.984;20.956;2023-07-22T08:31:53;23.76;53.32
65598;SHT31;52267;51.984;20.956;2023-07-22T08:34:20;23.82;53.41
65598;SHT31;52267;51.984;20.956;2023-07-22T08:36:47;23.77;53.84
65598;SHT31;52267;51.984;20.956;2023-07-22T08:39:15;23.78;53.83
65598;SHT31;52267;51.984;20.956;2023-07-22T08:41:43;24.07;53.76
65598;SHT31;52267;51.984;20.956;2023-07-22T08:44:19;24.16;52.09
65598;SHT31;52267;51.984;20.956;2023-07-22T08:46:47;24.30;52.38
65598;SHT31;52267;51.984;20.956;2023-07-22T08:49:22;24.44;52.41
65598;SHT31;52267;51.984;20.956;2023-07-22T08:51:50;24.47;52.21
65598;SHT31;52267;51.984;20.956;2023-07-22T08:54:17;24.73;52.01
65598;SHT31;52267;51.984;20.956;2023-07-22T08:56:46;24.80;51.74
65598;SHT31;52267;51.984;20.956;2023-07-22T08:59:14;24.92;50.88
65598;SHT31;52267;51.984;20.956;2023-07-22T09:01:41;24.84;50.86
65598;SHT31;52267;51.984;20.956;2023-07-22T09:04:09;24.92;50.09
65598;SHT31;52267;51.984;20.956;2023-07-22T09:06:36;25.01;49.04
65598;SHT31;52267;51.984;20.956;2023-07-22T09:09:04;25.07;49.22
65598;SHT31;52267;51.984;20.956;2023-07-22T09:11:34;24.89;50.15
65598;SHT31;52267;51.984;20.956;2023-07-22T09:14:02;24.70;50.18
65598;SHT31;52267;51.984;20.956;2023-07-22T09:16:31;24.94;50.31
65598;SHT31;52267;51.984;20.956;2023-07-22T09:18:59;25.32;49.19
65598;SHT31;52267;51.984;20.956;2023-07-22T09:21:26;25.47;48.71
65598;SHT31;52267;51.984;20.956;2023-07-22T09:23:54;25.27;48.97
65598;SHT31;52267;51.984;20.956;2023-07-22T09:26:21;25.27;48.41
65598;SHT31;52267;51.984;20.956;2023-07-22T09:31:25;25.44;46.53
65598;SHT31;52267;51.984;20.956;2023-07-22T09:33:54;25.65;46.49
65598;SHT31;52267;51.984;20.956;2023-07-22T09:36:21;25.84;46.01
65598;SHT31;52267;51.984;20.956;2023-07-22T09:39:01;26.12;46.05
65598;SHT31;52267;51.984;20.956;2023-07-22T09:41:29;26.33;44.74
65598;SHT31;52267;51.984;20.956;2023-07-22T09:43:57;26.44;43.92
65598;SHT31;52267;51.984;20.956;2023-07-22T09:46:30;26.41;43.48
65598;SHT31;52267;51.984;20.956;2023-07-22T09:49:05;26.62;43.70
65598;SHT31;52267;51.984;20.956;2023-07-22T09:51:36;26.53;44.02
65598;SHT31;52267;51.984;20.956;2023-07-22T09:54:05;26.50;43.52
65598;SHT31;52267;51.984;20.956;2023-07-22T09:56:43;26.60;43.57
65598;SHT31;52267;51.984;20.956;2023-07-22T09:59:17;26.76;42.10
65598;SHT31;52267;51.984;20.956;2023-07-22T10:01:46;26.65;42.40
65598;SHT31;52267;51.984;20.956;2023-07-22T10:04:15;26.77;42.36
65598;SHT31;52267;51.984;20.956;2023-07-22T10:06:43;26.80;42.50
65598;SHT31;52267;51.984;20.956;2023-07-22T10:09:11;27.01;42.51
65598;SHT31;52267;51.984;20.956;2023-07-22T10:11:39;27.26;42.03
65598;SHT31;52267;51.984;20.956;2023-07-22T10:14:07;27.46;41.09
65598;SHT31;52267;51.984;20.956;2023-07-22T10:16:34;27.34;41.38
65598;SHT31;52267;51.984;20.956;2023-07-22T10:19:03;27.49;40.91
65598;SHT31;52267;51.984;20.956;2023-07-22T10:21:31;27.22;40.10
65598;SHT31;52267;51.984;20.956;2023-07-22T10:24:00;27.14;41.21
65598;SHT31;52267;51.984;20.956;2023-07-22T10:26:29;27.01;41.75
65598;SHT31;52267;51.984;20.956;2023-07-22T10:28:56;26.71;42.23
65598;SHT31;52267;51.984;20.956;2023-07-22T10:31:25;26.64;42.50
65598;SHT31;52267;51.984;20.956;2023-07-22T10:33:57;26.68;42.73
65598;SHT31;52267;51.984;20.956;2023-07-22T10:36:28;26.61;42.79
65598;SHT31;52267;51.984;20.956;2023-07-22T10:38:57;26.45;42.51
65598;SHT31;52267;51.984;20.956;2023-07-22T10:41:26;26.57;41.87
65598;SHT31;52267;51.984;20.956;2023-07-22T10:43:56;26.75;41.64
65598;SHT31;52267;51.984;20.956;2023-07-22T10:46:33;26.85;41.31
65598;SHT31;52267;51.984;20.956;2023-07-22T10:49:09;27.03;41.82
65598;SHT31;52267;51.984;20.956;2023-07-22T10:51:37;27.13;40.65
65598;SHT31;52267;51.984;20.956;2023-07-22T10:54:14;27.10;40.36
65598;SHT31;52267;51.984;20.956;2023-07-22T10:56:43;26.49;40.82
65598;SHT31;52267;51.984;20.956;2023-07-22T10:59:11;26.16;41.68
65598;SHT31;52267;51.984;20.956;2023-07-22T11:01:39;25.97;41.47
65598;SHT31;52267;51.984;20.956;2023-07-22T11:12:03;26.87;40.86
65598;SHT31;52267;51.984;20.956;2023-07-22T11:17:17;27.09;40.52
65598;SHT31;52267;51.984;20.956;2023-07-22T11:20:01;27.11;39.64
65598;SHT31;52267;51.984;20.956;2023-07-22T11:22:28;27.19;40.49
65598;SHT31;52267;51.984;20.956;2023-07-22T11:24:59;27.33;39.68
65598;SHT31;52267;51.984;20.956;2023-07-22T11:27:26;27.32;39.68
65598;SHT31;52267;51.984;20.956;2023-07-22T11:29:57;27.43;40.08
65598;SHT31;52267;51.984;20.956;2023-07-22T11:32:25;27.61;39.16
65598;SHT31;52267;51.984;20.956;2023-07-22T11:34:52;27.34;38.27
65598;SHT31;52267;51.984;20.956;2023-07-22T11:37:19;27.32;38.49
65598;SHT31;52267;51.984;20.956;2023-07-22T11:39:46;27.31;38.01
65598;SHT31;52267;51.984;20.956;2023-07-22T11:42:13;27.08;38.88
65598;SHT31;52267;51.984;20.956;2023-07-22T11:44:41;27.06;39.73
65598;SHT31;52267;51.984;20.956;2023-07-22T11:47:09;27.06;38.95
65598;SHT31;52267;51.984;20.956;2023-07-22T11:52:09;26.58;39.75
65598;SHT31;52267;51.984;20.956;2023-07-22T11:54:42;26.33;40.30
65598;SHT31;52267;51.984;20.956;2023-07-22T11:59:52;25.88;40.57
65598;SHT31;52267;51.984;20.956;2023-07-22T12:02:25;25.96;39.72
65598;SHT31;52267;51.984;20.956;2023-07-22T12:04:56;26.23;39.75
65598;SHT31;52267;51.984;20.956;2023-07-22T12:07:29;26.41;39.21
65598;SHT31;52267;51.984;20.956;2023-07-22T12:09:58;26.30;39.40
65598;SHT31;52267;51.984;20.956;2023-07-22T12:12:38;26.05;39.67
65598;SHT31;52267;51.984;20.956;2023-07-22T12:15:16;25.81;40.25
65598;SHT31;52267;51.984;20.956;2023-07-22T12:17:51;25.74;40.35
65598;SHT31;52267;51.984;20.956;2023-07-22T12:20:25;25.62;40.96
65598;SHT31;52267;51.984;20.956;2023-07-22T12:22:58;25.58;41.18
65598;SHT31;52267;51.984;20.956;2023-07-22T12:25:26;25.62;40.39
65598;SHT31;52267;51.984;20.956;2023-07-22T12:27:53;25.91;40.05
65598;SHT31;52267;51.984;20.956;2023-07-22T12:30:20;26.27;39.63
65598;SHT31;52267;51.984;20.956;2023-07-22T12:32:48;26.52;39.36
65598;SHT31;52267;51.984;20.956;2023-07-22T12:35:15;26.76;38.36
65598;SHT31;52267;51.984;20.956;2023-07-22T12:37:46;26.78;37.60
65598;SHT31;52267;51.984;20.956;2023-07-22T12:40:13;26.83;37.98
65598;SHT31;52267;51.984;20.956;2023-07-22T12:42:40;27.06;38.18
65598;SHT31;52267;51.984;20.956;2023-07-22T12:45:08;27.33;37.42
65598;SHT31;52267;51.984;20.956;2023-07-22T12:47:36;27.40;36.71
65598;SHT31;52267;51.984;20.956;2023-07-22T12:50:03;27.20;36.77
65598;SHT31;52267;51.984;20.956;2023-07-22T12:52:34;27.07;37.50
65598;SHT31;52267;51.984;20.956;2023-07-22T12:55:01;27.08;37.66
65598;SHT31;52267;51.984;20.956;2023-07-22T12:57:28;27.17;37.48
65598;SHT31;52267;51.984;20.956;2023-07-22T12:59:55;26.95;37.48
65598;SHT31;52267;51.984;20.956;2023-07-22T13:02:22;26.85;37.57
65598;SHT31;52267;51.984;20.956;2023-07-22T13:04:51;26.88;37.76
65598;SHT31;52267;51.984;20.956;2023-07-22T13:07:19;26.71;37.82
65598;SHT31;52267;51.984;20.956;2023-07-22T13:09:49;26.79;37.64
65598;SHT31;52267;51.984;20.956;2023-07-22T13:12:18;26.81;37.64
65598;SHT31;52267;51.984;20.956;2023-07-22T13:14:45;27.08;37.74
65598;SHT31;52267;51.984;20.956;2023-07-22T13:17:12;27.18;37.27
65598;SHT31;52267;51.984;20.956;2023-07-22T13:19:40;26.95;37.57
65598;SHT31;52267;51.984;20.956;2023-07-22T13:22:07;26.86;37.76
65598;SHT31;52267;51.984;20.956;2023-07-22T13:24:34;26.69;37.99
65598;SHT31;52267;51.984;20.956;2023-07-22T13:27:01;26.44;38.25
65598;SHT31;52267;51.984;20.956;2023-07-22T13:29:28;26.37;38.36
65598;SHT31;52267;51.984;20.956;2023-07-22T13:31:56;26.30;37.99
65598;SHT31;52267;51.984;20.956;2023-07-22T13:34:23;26.02;38.48
65598;SHT31;52267;51.984;20.956;2023-07-22T13:36:50;25.78;38.75
65598;SHT31;52267;51.984;20.956;2023-07-22T13:39:17;25.71;39.17
65598;SHT31;52267;51.984;20.956;2023-07-22T13:41:44;25.63;39.10
65598;SHT31;52267;51.984;20.956;2023-07-22T13:44:12;25.61;38.71
65598;SHT31;52267;51.984;20.956;2023-07-22T13:46:39;25.54;38.80
65598;SHT31;52267;51.984;20.956;2023-07-22T13:49:06;25.55;39.35
65598;SHT31;52267;51.984;20.956;2023-07-22T13:51:33;25.79;39.25
65598;SHT31;52267;51.984;20.956;2023-07-22T13:54:01;26.20;38.95
65598;SHT31;52267;51.984;20.956;2023-07-22T13:56:28;26.45;38.57
65598;SHT31;52267;51.984;20.956;2023-07-22T13:58:55;26.29;38.26
65598;SHT31;52267;51.984;20.956;2023-07-22T14:01:22;26.14;38.83
65598;SHT31;52267;51.984;20.956;2023-07-22T14:03:49;26.29;38.94
65598;SHT31;52267;51.984;20.956;2023-07-22T14:06:16;26.35;38.98
65598;SHT31;52267;51.984;20.956;2023-07-22T14:08:43;26.54;38.67
65598;SHT31;52267;51.984;20.956;2023-07-22T14:11:10;26.61;39.10
65598;SHT31;52267;51.984;20.956;2023-07-22T14:13:39;26.58;39.48
65598;SHT31;52267;51.984;20.956;2023-07-22T14:16:06;26.53;39.26
65598;SHT31;52267;51.984;20.956;2023-07-22T14:18:33;26.74;39.19
65598;SHT31;52267;51.984;20.956;2023-07-22T14:21:00;26.83;38.94
65598;SHT31;52267;51.984;20.956;2023-07-22T14:23:27;26.70;39.44
65598;SHT31;52267;51.984;20.956;2023-07-22T14:25:54;26.75;39.51
65598;SHT31;52267;51.984;20.956;2023-07-22T14:28:21;26.85;38.86
65598;SHT31;52267;51.984;20.956;2023-07-22T14:30:49;26.91;38.88
65598;SHT31;52267;51.984;20.956;2023-07-22T14:33:17;26.98;38.30
65598;SHT31;52267;51.984;20.956;2023-07-22T14:35:44;26.85;38.13
65598;SHT31;52267;51.984;20.956;2023-07-22T14:38:11;26.84;38.25
65598;SHT31;52267;51.984;20.956;2023-07-22T14:40:38;26.69;37.80
65598;SHT31;52267;51.984;20.956;2023-07-22T14:43:06;26.54;38.15
65598;SHT31;52267;51.984;20.956;2023-07-22T14:45:33;26.27;38.76
65598;SHT31;52267;51.984;20.956;2023-07-22T14:48:00;25.91;39.27
65598;SHT31;52267;51.984;20.956;2023-07-22T14:50:28;25.85;39.45
65598;SHT31;52267;51.984;20.956;2023-07-22T14:52:55;25.72;39.31
65598;SHT31;52267;51.984;20.956;2023-07-22T14:55:22;25.82;39.25
65598;SHT31;52267;51.984;20.956;2023-07-22T14:57:49;25.86;38.37
65598;SHT31;52267;51.984;20.956;2023-07-22T15:00:17;25.80;38.37
65598;SHT31;52267;51.984;20.956;2023-07-22T15:02:44;25.90;37.61
65598;SHT31;52267;51.984;20.956;2023-07-22T15:05:12;25.98;37.67
65598;SHT31;52267;51.984;20.956;2023-07-22T15:07:39;26.10;37.62
65598;SHT31;52267;51.984;20.956;2023-07-22T15:10:06;26.16;37.19
65598;SHT31;52267;51.984;20.956;2023-07-22T15:12:34;25.87;36.96
65598;SHT31;52267;51.984;20.956;2023-07-22T15:15:01;25.76;36.96
65598;SHT31;52267;51.984;20.956;2023-07-22T15:17:28;25.85;36.83
65598;SHT31;52267;51.984;20.956;2023-07-22T15:19:58;25.85;36.93
65598;SHT31;52267;51.984;20.956;2023-07-22T15:22:25;25.95;36.99
65598;SHT31;52267;51.984;20.956;2023-07-22T15:24:52;25.79;37.31
65598;SHT31;52267;51.984;20.956;2023-07-22T15:27:20;25.84;37.60
65598;SHT31;52267;51.984;20.956;2023-07-22T15:29:47;25.95;37.44
65598;SHT31;52267;51.984;20.956;2023-07-22T15:32:14;25.97;36.66
65598;SHT31;52267;51.984;20.956;2023-07-22T15:34:42;25.89;36.49
65598;SHT31;52267;51.984;20.956;2023-07-22T15:37:09;25.86;36.00
65598;SHT31;52267;51.984;20.956;2023-07-22T15:39:36;25.77;36.22
65598;SHT31;52267;51.984;20.956;2023-07-22T15:42:03;25.75;36.73